createdAt,value
2023-08-13T00:01:42.375Z,15.20
2023-08-13T00:04:09.354Z,15.20
2023-08-13T00:06:36.381Z,15.20
2023-08-13T00:09:03.430Z,15.20
2023-08-13T00:11:30.326Z,15.10
2023-08-13T00:13:57.262Z,15.10
2023-08-13T00:16:24.236Z,15.10
2023-08-13T00:18:51.214Z,15.00
2023-08-13T00:21:18.152Z,15.00
2023-08-13T00:23:45.066Z,14.90
2023-08-13T00:26:12.000Z,14.90
2023-08-13T00:28:38.897Z,14.90
2023-08-13T00:31:05.797Z,14.80
2023-08-13T00:33:32.652Z,14.80
2023-08-13T00:35:59.674Z,14.70
2023-08-13T00:38:26.563Z,14.80
2023-08-13T00:40:53.461Z,14.80
2023-08-13T00:43:20.494Z,14.90
2023-08-13T00:45:47.624Z,14.80
2023-08-13T00:48:15.006Z,14.70
2023-08-13T00:50:43.529Z,14.70
2023-08-13T00:53:10.563Z,14.60
2023-08-13T00:55:37.681Z,14.60
2023-08-13T00:58:05.119Z,14.60
2023-08-13T01:00:32.622Z,14.50
2023-08-13T01:02:59.750Z,14.60
2023-08-13T01:05:42.607Z,14.50
2023-08-13T01:08:45.277Z,14.50
2023-08-13T01:11:35.122Z,14.40
2023-08-13T01:14:29.067Z,14.50
2023-08-13T01:17:00.052Z,14.40
2023-08-13T01:19:27.310Z,14.50
2023-08-13T01:21:54.245Z,14.50
2023-08-13T01:24:21.175Z,14.40
2023-08-13T01:27:19.159Z,14.40
2023-08-13T01:30:17.691Z,14.30
2023-08-13T01:32:52.216Z,14.50
2023-08-13T01:35:22.016Z,14.50
2023-08-13T01:37:50.968Z,14.40
2023-08-13T01:40:18.484Z,14.40
2023-08-13T01:42:45.447Z,14.40
2023-08-13T01:45:12.638Z,14.50
2023-08-13T01:47:39.625Z,14.40
2023-08-13T01:50:07.019Z,14.40
2023-08-13T01:52:34.068Z,14.40
2023-08-13T01:55:01.064Z,14.40
2023-08-13T01:57:27.979Z,14.40
2023-08-13T01:59:54.884Z,14.50
2023-08-13T02:02:21.896Z,14.50
2023-08-13T02:04:48.831Z,14.50
2023-08-13T02:07:15.824Z,14.50
2023-08-13T02:09:42.794Z,14.30
2023-08-13T02:12:09.732Z,14.40
2023-08-13T02:14:36.685Z,14.40
2023-08-13T02:17:03.608Z,14.40
2023-08-13T02:19:30.562Z,14.40
2023-08-13T02:21:57.487Z,14.40
2023-08-13T02:24:24.388Z,14.40
2023-08-13T02:26:51.388Z,14.50
2023-08-13T02:29:18.346Z,14.50
2023-08-13T02:31:45.359Z,14.40
2023-08-13T02:34:12.259Z,14.40
2023-08-13T02:36:39.281Z,14.50
2023-08-13T02:39:06.179Z,14.50
2023-08-13T02:41:33.094Z,14.50
2023-08-13T02:44:00.044Z,14.50
2023-08-13T02:46:27.755Z,14.40
2023-08-13T02:48:55.788Z,14.50
2023-08-13T02:51:26.538Z,14.50
2023-08-13T02:53:53.700Z,14.50
2023-08-13T02:56:20.908Z,14.50
2023-08-13T02:58:48.024Z,14.50
2023-08-13T03:01:15.035Z,14.50
2023-08-13T03:03:52.214Z,14.50
2023-08-13T03:06:23.878Z,14.50
2023-08-13T03:08:51.038Z,14.50
2023-08-13T03:11:18.606Z,14.50
2023-08-13T03:13:46.125Z,14.50
2023-08-13T03:16:13.158Z,14.50
2023-08-13T03:18:41.906Z,14.50
2023-08-13T03:21:08.792Z,14.40
2023-08-13T03:23:35.698Z,14.50
2023-08-13T03:26:02.641Z,14.50
2023-08-13T03:28:29.550Z,14.50
2023-08-13T03:31:03.040Z,14.40
2023-08-13T03:33:29.936Z,14.40
2023-08-13T03:35:56.810Z,14.40
2023-08-13T03:38:23.732Z,14.40
2023-08-13T03:40:54.879Z,14.50
2023-08-13T03:43:25.305Z,14.40
2023-08-13T03:45:52.206Z,14.40
2023-08-13T03:48:19.290Z,14.40
2023-08-13T03:50:46.308Z,14.40
2023-08-13T03:53:13.432Z,14.40
2023-08-13T03:55:40.420Z,14.40
2023-08-13T03:58:07.858Z,14.40
2023-08-13T04:00:34.856Z,14.40
2023-08-13T04:03:15.344Z,14.40
2023-08-13T04:05:47.103Z,14.40
2023-08-13T04:08:14.002Z,14.40
2023-08-13T04:10:40.907Z,14.50
2023-08-13T04:13:07.929Z,14.50
2023-08-13T04:15:34.880Z,14.60
2023-08-13T04:18:01.788Z,14.60
2023-08-13T04:20:28.786Z,14.70
2023-08-13T04:22:55.679Z,14.70
2023-08-13T04:25:22.588Z,14.80
2023-08-13T04:27:49.542Z,14.80
2023-08-13T04:30:16.461Z,14.70
2023-08-13T04:32:56.620Z,14.80
2023-08-13T04:35:24.200Z,14.90
2023-08-13T04:37:51.775Z,14.90
2023-08-13T04:40:19.251Z,14.90
2023-08-13T04:42:46.230Z,14.90
2023-08-13T04:45:13.246Z,14.90
2023-08-13T04:47:40.287Z,14.90
2023-08-13T04:50:09.177Z,15.00
2023-08-13T04:52:36.216Z,15.00
2023-08-13T04:55:03.318Z,15.00
2023-08-13T04:57:30.266Z,15.10
2023-08-13T04:59:57.322Z,15.10
2023-08-13T05:02:24.265Z,15.20
2023-08-13T05:04:51.254Z,15.20
2023-08-13T05:07:18.132Z,15.30
2023-08-13T05:09:45.108Z,15.40
2023-08-13T05:12:12.124Z,15.40
2023-08-13T05:14:39.261Z,15.50
2023-08-13T05:17:21.464Z,15.60
2023-08-13T05:19:48.677Z,15.70
2023-08-13T05:22:16.305Z,15.70
2023-08-13T05:24:43.848Z,15.70
2023-08-13T05:27:10.773Z,15.80
2023-08-13T05:29:37.766Z,15.80
2023-08-13T05:32:04.927Z,15.90
2023-08-13T05:34:32.118Z,15.90
2023-08-13T05:36:59.011Z,15.90
2023-08-13T05:39:25.931Z,15.90
2023-08-13T05:41:52.873Z,16.00
2023-08-13T05:44:19.769Z,16.00
2023-08-13T05:46:46.685Z,16.00
2023-08-13T05:49:13.601Z,16.10
2023-08-13T05:51:40.508Z,16.10
2023-08-13T05:54:07.391Z,16.20
2023-08-13T05:56:34.281Z,16.20
2023-08-13T05:59:01.182Z,16.20
2023-08-13T06:01:28.043Z,16.20
2023-08-13T06:03:54.983Z,16.30
2023-08-13T06:06:21.911Z,16.30
2023-08-13T06:08:49.978Z,16.40
2023-08-13T06:11:16.936Z,16.50
2023-08-13T06:13:43.965Z,16.40
2023-08-13T06:16:10.952Z,16.50
2023-08-13T06:18:37.921Z,16.70
2023-08-13T06:21:05.102Z,16.80
2023-08-13T06:23:32.271Z,17.00
2023-08-13T06:25:59.692Z,17.10
2023-08-13T06:28:26.640Z,17.10
2023-08-13T06:30:53.681Z,17.10
2023-08-13T06:33:20.667Z,17.20
2023-08-13T06:35:48.419Z,17.20
2023-08-13T06:38:16.016Z,17.40
2023-08-13T06:40:43.472Z,17.40
2023-08-13T06:43:11.708Z,17.50
2023-08-13T06:45:38.967Z,17.40
2023-08-13T06:48:06.111Z,17.50
2023-08-13T06:50:33.101Z,17.60
2023-08-13T06:53:00.052Z,17.60
2023-08-13T06:55:27.010Z,17.60
2023-08-13T06:57:53.939Z,17.60
2023-08-13T07:00:23.800Z,17.60
2023-08-13T07:02:58.734Z,17.60
2023-08-13T07:05:25.624Z,17.60
2023-08-13T07:07:52.493Z,17.60
2023-08-13T07:10:19.406Z,17.60
2023-08-13T07:12:46.295Z,17.60
2023-08-13T07:15:13.324Z,17.60
2023-08-13T07:17:40.243Z,17.80
2023-08-13T07:20:07.751Z,18.00
2023-08-13T07:22:34.690Z,18.20
2023-08-13T07:25:01.616Z,18.30
2023-08-13T07:27:28.519Z,18.40
2023-08-13T07:29:55.440Z,18.70
2023-08-13T07:32:22.339Z,18.70
2023-08-13T07:34:49.213Z,18.80
2023-08-13T07:37:16.158Z,19.10
2023-08-13T07:39:43.036Z,19.30
2023-08-13T07:42:10.053Z,19.50
2023-08-13T07:44:37.590Z,19.60
2023-08-13T07:47:04.564Z,19.70
2023-08-13T07:49:31.428Z,19.60
2023-08-13T07:51:58.368Z,19.80
2023-08-13T07:54:25.244Z,19.90
2023-08-13T07:56:52.128Z,20.10
2023-08-13T07:59:19.118Z,20.40
2023-08-13T08:01:46.014Z,20.50
2023-08-13T08:04:12.877Z,20.70
2023-08-13T08:06:39.811Z,20.80
2023-08-13T08:09:06.802Z,20.70
2023-08-13T08:11:34.193Z,20.80
2023-08-13T08:14:01.162Z,20.80
2023-08-13T08:16:28.082Z,20.80
2023-08-13T08:18:54.954Z,21.00
2023-08-13T08:21:21.880Z,21.10
2023-08-13T08:23:48.790Z,20.80
2023-08-13T08:26:15.860Z,21.00
2023-08-13T08:28:42.765Z,21.10
2023-08-13T08:31:09.775Z,21.00
2023-08-13T08:33:36.694Z,21.00
2023-08-13T08:36:03.699Z,21.20
2023-08-13T08:38:30.599Z,21.60
2023-08-13T08:40:59.154Z,21.50
2023-08-13T08:43:29.948Z,21.70
2023-08-13T08:46:02.345Z,21.40
2023-08-13T08:48:30.581Z,21.80
2023-08-13T08:50:57.817Z,22.10
2023-08-13T08:53:26.409Z,23.00
2023-08-13T08:55:54.153Z,23.90
2023-08-13T08:58:21.471Z,24.90
2023-08-13T09:00:48.492Z,25.80
2023-08-13T09:03:15.500Z,26.00
2023-08-13T09:05:43.305Z,26.30
2023-08-13T09:08:16.306Z,26.20
2023-08-13T09:10:45.056Z,27.00
2023-08-13T09:13:12.171Z,26.40
2023-08-13T09:15:44.185Z,26.90
2023-08-13T09:18:11.271Z,26.80
2023-08-13T09:20:49.614Z,27.10
2023-08-13T09:23:26.334Z,26.40
2023-08-13T09:25:58.153Z,27.10
2023-08-13T09:28:25.778Z,27.90
2023-08-13T09:30:52.762Z,27.30
2023-08-13T09:33:19.806Z,27.30
2023-08-13T09:35:46.909Z,26.70
2023-08-13T09:38:13.871Z,25.70
2023-08-13T09:40:40.797Z,25.60
2023-08-13T09:43:08.116Z,25.60
2023-08-13T09:45:36.302Z,25.10
2023-08-13T09:48:07.609Z,24.60
2023-08-13T09:50:39.384Z,24.60
2023-08-13T09:53:13.595Z,24.70
2023-08-13T09:55:49.556Z,24.30
2023-08-13T09:58:19.883Z,25.20
2023-08-13T10:00:47.930Z,24.90
2023-08-13T10:03:18.065Z,25.50
2023-08-13T10:05:45.970Z,25.70
2023-08-13T10:08:13.553Z,25.80
2023-08-13T10:10:41.635Z,25.60
2023-08-13T10:13:08.679Z,25.70
2023-08-13T10:15:36.916Z,25.30
2023-08-13T10:18:04.176Z,25.50
2023-08-13T10:20:31.349Z,25.20
2023-08-13T10:22:58.492Z,24.90
2023-08-13T10:25:29.705Z,24.70
2023-08-13T10:27:57.731Z,24.80
2023-08-13T10:30:24.744Z,24.90
2023-08-13T10:33:03.069Z,24.80
2023-08-13T10:35:34.868Z,24.80
2023-08-13T10:38:04.140Z,24.90
2023-08-13T10:40:31.228Z,24.60
2023-08-13T10:43:02.148Z,24.30
2023-08-13T10:45:34.294Z,24.40
2023-08-13T10:48:03.125Z,25.10
2023-08-13T10:50:41.315Z,25.10
2023-08-13T10:53:13.837Z,25.10
2023-08-13T10:55:44.840Z,24.90
2023-08-13T10:58:25.698Z,25.40
2023-08-13T11:00:53.344Z,26.10
2023-08-13T11:03:26.901Z,26.40
2023-08-13T11:05:55.764Z,25.80
2023-08-13T11:08:34.062Z,26.20
2023-08-13T11:11:12.211Z,26.20
2023-08-13T11:13:39.196Z,25.60
2023-08-13T11:16:06.164Z,25.70
2023-08-13T11:18:33.267Z,26.10
2023-08-13T11:21:00.776Z,25.80
2023-08-13T11:23:27.814Z,26.30
2023-08-13T11:25:54.777Z,26.60
2023-08-13T11:28:28.633Z,27.70
2023-08-13T11:30:58.047Z,27.20
2023-08-13T11:33:25.859Z,27.10
2023-08-13T11:35:53.074Z,27.30
2023-08-13T11:38:20.464Z,27.20
2023-08-13T11:40:48.061Z,27.40
2023-08-13T11:43:15.361Z,26.70
2023-08-13T11:45:43.165Z,26.60
2023-08-13T11:48:16.389Z,27.20
2023-08-13T11:51:01.729Z,26.20
2023-08-13T11:53:45.168Z,27.10
2023-08-13T11:56:13.687Z,26.40
2023-08-13T11:58:41.125Z,26.50
2023-08-13T12:01:08.107Z,27.80
2023-08-13T12:03:39.714Z,28.10
2023-08-13T12:06:07.466Z,27.50
2023-08-13T12:08:34.859Z,27.50
2023-08-13T12:11:02.223Z,28.10
2023-08-13T12:13:29.662Z,28.10
2023-08-13T12:15:56.721Z,27.80
2023-08-13T12:18:23.635Z,27.40
2023-08-13T12:20:50.503Z,27.60
2023-08-13T12:23:17.434Z,27.80
2023-08-13T12:25:47.613Z,28.00
2023-08-13T12:28:15.105Z,28.60
2023-08-13T12:30:42.026Z,28.90
2023-08-13T12:33:08.977Z,28.40
2023-08-13T12:35:35.910Z,28.20
2023-08-13T12:38:02.814Z,28.70
2023-08-13T12:40:29.777Z,28.80
2023-08-13T12:42:56.654Z,28.60
2023-08-13T12:45:23.586Z,28.90
2023-08-13T12:47:50.609Z,29.40
2023-08-13T12:50:17.514Z,29.30
2023-08-13T12:52:44.405Z,29.10
2023-08-13T12:55:11.349Z,29.20
2023-08-13T12:57:38.359Z,29.80
2023-08-13T13:00:06.080Z,29.60
2023-08-13T13:02:33.044Z,28.90
2023-08-13T13:05:00.057Z,28.90
2023-08-13T13:07:27.099Z,28.40
2023-08-13T13:09:54.029Z,28.70
2023-08-13T13:12:21.129Z,28.50
2023-08-13T13:14:48.323Z,28.60
2023-08-13T13:17:15.412Z,28.30
2023-08-13T13:19:42.299Z,28.60
2023-08-13T13:22:09.336Z,28.70
2023-08-13T13:24:36.229Z,28.80
2023-08-13T13:27:03.205Z,27.80
2023-08-13T13:29:30.134Z,28.00
2023-08-13T13:31:56.987Z,27.70
2023-08-13T13:34:23.869Z,28.00
2023-08-13T13:36:50.796Z,27.40
2023-08-13T13:39:17.744Z,27.50
2023-08-13T13:41:44.658Z,27.70
2023-08-13T13:44:11.565Z,27.70
2023-08-13T13:46:38.500Z,27.70
2023-08-13T13:49:05.445Z,27.70
2023-08-13T13:51:32.335Z,27.50
2023-08-13T13:53:59.208Z,27.70
2023-08-13T13:56:26.125Z,27.40
2023-08-13T13:58:53.075Z,27.50
2023-08-13T14:01:20.078Z,27.20
2023-08-13T14:03:47.143Z,27.30
2023-08-13T14:06:14.135Z,27.20
2023-08-13T14:08:41.052Z,26.60
2023-08-13T14:11:07.937Z,27.40
2023-08-13T14:13:34.866Z,27.10
2023-08-13T14:16:02.050Z,27.10
2023-08-13T14:18:29.013Z,26.90
2023-08-13T14:20:55.924Z,27.20
2023-08-13T14:23:22.876Z,27.40
2023-08-13T14:25:51.615Z,27.60
2023-08-13T14:28:18.651Z,27.50
2023-08-13T14:30:45.808Z,27.40
2023-08-13T14:33:12.780Z,27.90
2023-08-13T14:35:39.690Z,27.60
2023-08-13T14:38:06.619Z,27.70
2023-08-13T14:40:33.564Z,27.50
2023-08-13T14:43:00.520Z,27.60
2023-08-13T14:45:27.523Z,28.10
2023-08-13T14:47:54.518Z,27.80
2023-08-13T14:50:21.508Z,28.10
2023-08-13T14:52:48.451Z,28.30
2023-08-13T14:55:15.356Z,28.30
2023-08-13T14:57:42.273Z,28.30
2023-08-13T15:00:09.607Z,28.20
2023-08-13T15:02:37.140Z,28.70
2023-08-13T15:05:04.529Z,28.40
2023-08-13T15:07:31.466Z,28.30
2023-08-13T15:09:58.418Z,28.00
2023-08-13T15:12:39.480Z,28.00
2023-08-13T15:15:08.894Z,27.50
2023-08-13T15:17:35.908Z,27.20
2023-08-13T15:20:02.913Z,27.00
2023-08-13T15:22:29.855Z,26.60
2023-08-13T15:24:58.667Z,26.40
2023-08-13T15:27:25.570Z,26.40
2023-08-13T15:29:52.524Z,26.40
2023-08-13T15:32:20.609Z,26.20
2023-08-13T15:34:47.493Z,26.00
2023-08-13T15:37:14.860Z,25.70
2023-08-13T15:39:41.731Z,25.60
2023-08-13T15:42:08.611Z,25.70
2023-08-13T15:44:35.687Z,25.80
2023-08-13T15:47:02.641Z,25.70
2023-08-13T15:49:29.748Z,25.50
2023-08-13T15:51:56.678Z,25.30
2023-08-13T15:54:23.614Z,25.40
2023-08-13T15:56:50.570Z,25.40
2023-08-13T15:59:17.570Z,25.20
2023-08-13T16:01:44.459Z,25.30
2023-08-13T16:04:11.350Z,25.10
2023-08-13T16:06:38.677Z,25.00
2023-08-13T16:09:05.992Z,25.00
2023-08-13T16:11:32.885Z,25.10
2023-08-13T16:14:00.130Z,25.00
2023-08-13T16:16:27.148Z,25.00
2023-08-13T16:18:54.116Z,25.00
2023-08-13T16:21:21.034Z,24.90
2023-08-13T16:23:50.459Z,24.90
2023-08-13T16:26:21.661Z,24.80
2023-08-13T16:28:48.833Z,24.60
2023-08-13T16:31:15.809Z,24.70
2023-08-13T16:33:42.737Z,24.60
2023-08-13T16:36:09.727Z,24.50
2023-08-13T16:38:36.606Z,24.60
2023-08-13T16:41:03.563Z,24.40
2023-08-13T16:43:30.547Z,24.50
2023-08-13T16:45:57.537Z,24.50
2023-08-13T16:48:24.887Z,24.60
2023-08-13T16:50:51.806Z,24.40
2023-08-13T16:53:18.738Z,24.40
2023-08-13T16:55:45.619Z,24.50
2023-08-13T16:58:12.495Z,24.50
2023-08-13T17:00:39.515Z,24.50
2023-08-13T17:03:06.552Z,24.40
2023-08-13T17:05:33.763Z,24.70
2023-08-13T17:08:00.724Z,25.30
2023-08-13T17:10:27.626Z,25.60
2023-08-13T17:12:54.515Z,25.60
2023-08-13T17:15:25.576Z,26.10
2023-08-13T17:17:56.539Z,26.20
2023-08-13T17:20:24.148Z,25.80
2023-08-13T17:22:51.633Z,25.40
2023-08-13T17:25:18.729Z,25.30
2023-08-13T17:27:46.513Z,25.90
2023-08-13T17:30:13.772Z,26.60
2023-08-13T17:32:40.640Z,26.20
2023-08-13T17:35:07.663Z,26.10
2023-08-13T17:37:36.646Z,25.90
2023-08-13T17:40:04.988Z,25.80
2023-08-13T17:42:32.252Z,25.50
2023-08-13T17:44:59.297Z,25.10
2023-08-13T17:47:26.303Z,25.10
2023-08-13T17:49:53.257Z,24.90
2023-08-13T17:52:20.196Z,24.70
2023-08-13T17:54:47.166Z,24.50
2023-08-13T17:57:14.311Z,24.40
2023-08-13T17:59:41.351Z,24.30
2023-08-13T18:02:08.438Z,24.10
2023-08-13T18:04:35.329Z,24.00
2023-08-13T18:07:02.403Z,23.70
2023-08-13T18:09:29.364Z,23.60
2023-08-13T18:11:56.271Z,23.40
2023-08-13T18:14:23.189Z,23.30
2023-08-13T18:16:50.186Z,23.10
2023-08-13T18:19:17.093Z,22.90
2023-08-13T18:21:43.987Z,22.80
2023-08-13T18:24:10.897Z,22.60
2023-08-13T18:26:37.749Z,22.40
2023-08-13T18:29:04.781Z,22.30
2023-08-13T18:31:31.861Z,22.10
2023-08-13T18:33:58.774Z,22.00
2023-08-13T18:36:25.649Z,21.90
2023-08-13T18:38:52.633Z,21.70
2023-08-13T18:41:19.579Z,21.70
2023-08-13T18:43:46.534Z,21.50
2023-08-13T18:46:13.573Z,21.40
2023-08-13T18:48:40.478Z,21.30
2023-08-13T18:51:07.547Z,21.30
2023-08-13T18:53:34.469Z,21.20
2023-08-13T18:56:01.413Z,21.10
2023-08-13T18:58:28.380Z,21.00
2023-08-13T19:00:55.325Z,20.80
2023-08-13T19:03:22.287Z,20.80
2023-08-13T19:05:49.293Z,20.70
2023-08-13T19:08:16.261Z,20.60
2023-08-13T19:10:44.560Z,20.50
2023-08-13T19:13:11.712Z,20.40
2023-08-13T19:15:38.677Z,20.30
2023-08-13T19:18:05.881Z,20.20
2023-08-13T19:20:32.850Z,20.10
2023-08-13T19:22:59.744Z,20.00
2023-08-13T19:25:26.630Z,19.90
2023-08-13T19:27:53.534Z,19.80
2023-08-13T19:30:20.483Z,19.80
2023-08-13T19:32:47.430Z,19.60
2023-08-13T19:35:14.360Z,19.40
2023-08-13T19:37:41.322Z,19.30
2023-08-13T19:40:08.729Z,19.20
2023-08-13T19:42:35.653Z,19.20
2023-08-13T19:45:02.610Z,19.10
2023-08-13T19:47:29.591Z,19.00
2023-08-13T19:49:58.347Z,19.00
2023-08-13T19:52:25.574Z,18.90
2023-08-13T19:54:52.470Z,18.90
2023-08-13T19:57:19.417Z,19.00
2023-08-13T19:59:46.327Z,19.00
2023-08-13T20:02:13.284Z,19.00
2023-08-13T20:04:40.244Z,19.00
2023-08-13T20:07:07.357Z,18.90
2023-08-13T20:09:34.305Z,19.00
2023-08-13T20:12:01.230Z,18.80
2023-08-13T20:14:28.149Z,18.70
2023-08-13T20:16:55.083Z,18.50
2023-08-13T20:19:22.025Z,18.50
2023-08-13T20:21:51.809Z,18.40
2023-08-13T20:24:20.262Z,18.40
2023-08-13T20:26:47.445Z,18.20
2023-08-13T20:29:15.809Z,18.30
2023-08-13T20:31:43.990Z,18.20
2023-08-13T20:34:11.333Z,18.20
2023-08-13T20:36:38.341Z,18.20
2023-08-13T20:39:05.390Z,18.30
2023-08-13T20:41:32.480Z,18.00
2023-08-13T20:43:59.365Z,18.00
2023-08-13T20:46:26.251Z,17.90
2023-08-13T20:48:53.176Z,17.80
2023-08-13T20:51:20.184Z,17.70
2023-08-13T20:53:47.114Z,17.70
2023-08-13T20:56:13.995Z,17.70
2023-08-13T20:58:40.898Z,17.70
2023-08-13T21:01:07.872Z,17.70
2023-08-13T21:03:34.919Z,17.70
2023-08-13T21:06:01.857Z,17.60
2023-08-13T21:08:28.860Z,17.60
2023-08-13T21:10:55.733Z,17.60
2023-08-13T21:13:22.632Z,17.50
2023-08-13T21:15:49.648Z,17.50
2023-08-13T21:18:16.581Z,17.50
2023-08-13T21:20:43.485Z,17.50
2023-08-13T21:23:10.429Z,17.50
2023-08-13T21:25:37.320Z,17.40
2023-08-13T21:28:04.515Z,17.40
2023-08-13T21:30:31.477Z,17.50
2023-08-13T21:32:58.560Z,17.60
2023-08-13T21:35:25.559Z,17.60
2023-08-13T21:37:52.505Z,17.60
2023-08-13T21:40:19.486Z,17.60
2023-08-13T21:42:46.421Z,17.60
2023-08-13T21:45:13.456Z,17.60
2023-08-13T21:47:40.359Z,17.60
2023-08-13T21:50:07.932Z,17.60
2023-08-13T21:52:34.907Z,17.50
2023-08-13T21:55:01.906Z,17.50
2023-08-13T21:57:28.835Z,17.50
2023-08-13T21:59:55.793Z,17.50
2023-08-13T22:02:22.741Z,17.40
2023-08-13T22:04:49.696Z,17.50
2023-08-13T22:07:16.679Z,17.60
2023-08-13T22:09:43.667Z,17.70
2023-08-13T22:12:10.591Z,17.80
2023-08-13T22:14:37.459Z,17.80
2023-08-13T22:17:04.436Z,17.90
2023-08-13T22:19:57.369Z,17.90
2023-08-13T22:22:25.990Z,17.90
2023-08-13T22:24:52.963Z,17.80
2023-08-13T22:27:20.140Z,17.90
2023-08-13T22:29:47.217Z,17.80
2023-08-13T22:32:14.187Z,17.80
2023-08-13T22:34:41.848Z,17.80
2023-08-13T22:37:08.860Z,17.80
2023-08-13T22:39:35.765Z,17.90
2023-08-13T22:42:02.680Z,17.90
2023-08-13T22:44:29.616Z,17.90
2023-08-13T22:46:56.534Z,17.90
2023-08-13T22:49:35.976Z,17.90
2023-08-13T22:52:04.981Z,18.00
2023-08-13T22:54:31.867Z,17.90
2023-08-13T22:56:59.289Z,17.90
2023-08-13T22:59:26.168Z,18.00
2023-08-13T23:01:53.082Z,17.90
2023-08-13T23:04:20.068Z,17.90
2023-08-13T23:06:46.950Z,18.00
2023-08-13T23:09:13.832Z,18.00
2023-08-13T23:11:40.753Z,18.00
2023-08-13T23:14:08.141Z,17.90
2023-08-13T23:16:35.045Z,18.00
2023-08-13T23:19:01.990Z,18.00
2023-08-13T23:21:28.910Z,17.90
2023-08-13T23:23:55.909Z,17.90
2023-08-13T23:26:22.787Z,17.90
2023-08-13T23:28:49.775Z,17.90
2023-08-13T23:31:17.430Z,17.80
2023-08-13T23:33:47.857Z,17.80
2023-08-13T23:36:14.886Z,17.80
2023-08-13T23:38:41.803Z,17.80
2023-08-13T23:41:08.873Z,17.80
2023-08-13T23:43:35.927Z,17.90
2023-08-13T23:46:02.869Z,17.80
2023-08-13T23:48:29.860Z,17.80
2023-08-13T23:50:56.779Z,17.80
2023-08-13T23:53:23.693Z,17.80
2023-08-13T23:55:50.640Z,17.80
2023-08-13T23:58:17.584Z,17.80
